Aviation Digital Data Service (ADDS)

Output produced by METARs form (0950 UTC 23 April 2017)
found at http://www.aviationweather.gov/adds/metars/
 
LKCV 230900Z 30014KT 9999 SCT032 BKN060 07/00 Q1020 NOSIG RMK BLU BLU
TAF LKCV 230500Z 2306/2406 28012KT 9999 BKN035 
     TEMPO 2309/2400 29015G25KT 8000 SHRA SCT020 BKN030 
     BECMG 2315/2317 BKN045 
     BECMG 2404/2406 CAVOK
       
LKCV 230900Z 30014KT 9999 SCT032 BKN060 07/00 Q1020 NOSIG RMK BLU BLU
TAF LKCV 230500Z 2306/2406 28012KT 9999 BKN035 
     TEMPO 2309/2400 29015G25KT 8000 SHRA SCT020 BKN030 
     BECMG 2315/2317 BKN045 
     BECMG 2404/2406 CAVOK
       
LKKB 230900Z 30011KT 240V330 9999 SCT030 BKN050 07/M01 Q1020 NOSIG
TAF LKKB 230500Z 2306/2406 28011KT 9999 BKN040 
     TEMPO 2306/2318 29016KT SHRAGS SCT025TCU BKN030 
     BECMG 2318/2320 28008KT CAVOK
       
LKKV 230930Z 28013KT 9999 FEW028 SCT037 03/M03 Q1020
TAF LKKV 230500Z 2306/2412 28010KT 9999 SCT030 
     TEMPO 2306/2321 31020KT 5000 SHSN BKN015TCU 
     PROB40 
     TEMPO 2306/2318 34020G30KT 1200 +SHSN BKN006TCU 
     BECMG 2321/2400 23007KT CAVOK
       
LKLN 230900Z AUTO 28007KT 230V320 9999 BKN040 BKN050 06/M03 Q1021
LKMT 230930Z 32015KT 290V350 9999 BKN029 07/02 Q1018 TEMPO 5000 SHRASN
TAF LKMT 230500Z 2306/2412 22010KT 9999 SCT033 
     TEMPO 2306/2412 31015KT 6000 -SHRASN BKN025TCU 
     PROB40 
     TEMPO 2308/2318 34020G30KT 3000 +SHSN BKN015TCU
       
LKNA 230900Z 32016KT 9999 FEW030 BKN049 05/M02 Q1019 NOSIG RMK BLU BLU
TAF LKNA 230500Z 2306/2406 28012KT 9999 FEW040 BKN060 
     TEMPO 2306/2320 33015G26KT 8000 SHRA BKN030 
     PROB40 
     TEMPO 2313/2318 4000 SHRASN BKN020TCU 
     BECMG 2321/2323 33008KT
       
LKPD 230900Z 28013KT 9999 FEW030 BKN050 07/M01 Q1020 NOSIG RMK BLU BLU
TAF LKPD 230500Z 2306/2406 28012KT 9999 BKN030 
     TEMPO 2308/2315 28014G24KT 7000 SHRA BKN020
       
LKPR 230945Z 28012KT 9999 -SHGS SCT030TCU 06/M01 Q1020 RMK REG QNH 1015
TAF LKPR 230500Z 2306/2412 28010KT 9999 SCT040 
     TEMPO 2306/2320 31016KT 6000 -SHRASN BKN030TCU 
     PROB40 
     TEMPO 2308/2316 34020G30KT 3000 +SHSN BKN015TCU 
     BECMG 2320/2322 23007KT CAVOK
       
LKTB 230930Z 32014KT 290V010 9999 BKN048 09/M03 Q1019 NOSIG
TAF LKTB 230500Z 2306/2412 27006KT CAVOK 
     TEMPO 2306/2317 29015KT 9999 BKN033 
     PROB40 
     TEMPO 2308/2316 6000 SHRASN BKN030TCU 
     BECMG 2317/2318 VRB02KT CAVOK
       
LKKV 230930Z 28013KT 9999 FEW028 SCT037 03/M03 Q1020
TAF LKKV 230500Z 2306/2412 28010KT 9999 SCT030 
     TEMPO 2306/2321 31020KT 5000 SHSN BKN015TCU 
     PROB40 
     TEMPO 2306/2318 34020G30KT 1200 +SHSN BKN006TCU 
     BECMG 2321/2400 23007KT CAVOK
       
LKKB 230900Z 30011KT 240V330 9999 SCT030 BKN050 07/M01 Q1020 NOSIG
TAF LKKB 230500Z 2306/2406 28011KT 9999 BKN040 
     TEMPO 2306/2318 29016KT SHRAGS SCT025TCU BKN030 
     BECMG 2318/2320 28008KT CAVOK
       
LKLN 230900Z AUTO 28007KT 230V320 9999 BKN040 BKN050 06/M03 Q1021
LKMT 230930Z 32015KT 290V350 9999 BKN029 07/02 Q1018 TEMPO 5000 SHRASN
TAF LKMT 230500Z 2306/2412 22010KT 9999 SCT033 
     TEMPO 2306/2412 31015KT 6000 -SHRASN BKN025TCU 
     PROB40 
     TEMPO 2308/2318 34020G30KT 3000 +SHSN BKN015TCU
       
LKNA 230900Z 32016KT 9999 FEW030 BKN049 05/M02 Q1019 NOSIG RMK BLU BLU
TAF LKNA 230500Z 2306/2406 28012KT 9999 FEW040 BKN060 
     TEMPO 2306/2320 33015G26KT 8000 SHRA BKN030 
     PROB40 
     TEMPO 2313/2318 4000 SHRASN BKN020TCU 
     BECMG 2321/2323 33008KT
       
LKPD 230900Z 28013KT 9999 FEW030 BKN050 07/M01 Q1020 NOSIG RMK BLU BLU
TAF LKPD 230500Z 2306/2406 28012KT 9999 BKN030 
     TEMPO 2308/2315 28014G24KT 7000 SHRA BKN020
       
LKPR 230945Z 28012KT 9999 -SHGS SCT030TCU 06/M01 Q1020 RMK REG QNH 1015
TAF LKPR 230500Z 2306/2412 28010KT 9999 SCT040 
     TEMPO 2306/2320 31016KT 6000 -SHRASN BKN030TCU 
     PROB40 
     TEMPO 2308/2316 34020G30KT 3000 +SHSN BKN015TCU 
     BECMG 2320/2322 23007KT CAVOK
       
LKTB 230930Z 32014KT 290V010 9999 BKN048 09/M03 Q1019 NOSIG
TAF LKTB 230500Z 2306/2412 27006KT CAVOK 
     TEMPO 2306/2317 29015KT 9999 BKN033 
     PROB40 
     TEMPO 2308/2316 6000 SHRASN BKN030TCU 
     BECMG 2317/2318 VRB02KT CAVOK